EWG89Z EDDS-GCLA
Flight info
| Callsign | EWG89Z |
|---|---|
| Flight time | 4h 24m |
| Altitude | 35000 |
| Route | ROTWE7H/07 ROTWE Y126 TUBLO N850 NATOR DCT LUTIX DCT BENOT DCT NEMOS DCT NINTU DCT MEBAK DCT REPSI DCT LERGA DCT MINSO DCT NARAK DCT AGN DCT PIPOR DCT PPN DCT MIRPO DCT DGO DCT NEA L14 ADINO DCT RAKOD DCT ELVAR DCT BEXAL UN866 KONBA |
| Aircraft | A321/M-SDE3FGHIRWY/LB1 |
Departure
| Time | 2026-04-07 11:19 |
|---|---|
| Airport | Stuttgart Airport (EDDS) |
Arrival
| Time | 2026-04-07 15:44 |
|---|---|
| Airport | La Palma Airport (GCLA) |
| Time | Latitude | Longitude | Altitude | Speed | Heading |
|---|---|---|---|---|---|
| 2026-04-07 10:53 | 48.68729 | 9.19329 | 1313 ft | 0 kts | 163° |
| 2026-04-07 11:16 | 48.68715 | 9.19336 | 1312 ft | 5 kts | 163° |
| 2026-04-07 11:16 | 48.68680 | 9.19388 | 1310 ft | 10 kts | 109° |
| 2026-04-07 11:16 | 48.68694 | 9.19513 | 1306 ft | 14 kts | 75° |
| 2026-04-07 11:16 | 48.68725 | 9.19680 | 1301 ft | 18 kts | 74° |
| 2026-04-07 11:17 | 48.68747 | 9.19791 | 1298 ft | 10 kts | 73° |
| 2026-04-07 11:17 | 48.68762 | 9.19901 | 1295 ft | 8 kts | 92° |
| 2026-04-07 11:17 | 48.68728 | 9.19967 | 1291 ft | 7 kts | 158° |
| 2026-04-07 11:17 | 48.68705 | 9.19977 | 1290 ft | 2 kts | 164° |
| 2026-04-07 11:18 | 48.68672 | 9.19992 | 1288 ft | 8 kts | 163° |
| 2026-04-07 11:18 | 48.68599 | 9.20024 | 1287 ft | 11 kts | 163° |
| 2026-04-07 11:18 | 48.68586 | 9.20074 | 1283 ft | 6 kts | 79° |
| 2026-04-07 11:18 | 48.68597 | 9.20138 | 1282 ft | 10 kts | 74° |
| 2026-04-07 11:19 | 48.68639 | 9.20355 | 1276 ft | 58 kts | 73° |
| 2026-04-07 11:19 | 48.68819 | 9.21302 | 1266 ft | 127 kts | 73° |
| 2026-04-07 11:19 | 48.69118 | 9.22862 | 1265 ft | 176 kts | 74° |
| 2026-04-07 11:19 | 48.69439 | 9.24618 | 1998 ft | 171 kts | 73° |
| 2026-04-07 11:20 | 48.69760 | 9.26358 | 2663 ft | 177 kts | 73° |
| 2026-04-07 11:20 | 48.69831 | 9.27948 | 2853 ft | 198 kts | 99° |
| 2026-04-07 11:20 | 48.69215 | 9.29887 | 3171 ft | 213 kts | 130° |
| 2026-04-07 11:20 | 48.68171 | 9.31503 | 3683 ft | 216 kts | 142° |
| 2026-04-07 11:21 | 48.66798 | 9.32422 | 4168 ft | 219 kts | 169° |
| 2026-04-07 11:21 | 48.65278 | 9.32311 | 4664 ft | 221 kts | 197° |
| 2026-04-07 11:21 | 48.63945 | 9.31200 | 5180 ft | 220 kts | 223° |
| 2026-04-07 11:21 | 48.62966 | 9.29376 | 5460 ft | 232 kts | 236° |
| 2026-04-07 11:22 | 48.61986 | 9.27286 | 5630 ft | 256 kts | 236° |
| 2026-04-07 11:22 | 48.60941 | 9.25030 | 6131 ft | 267 kts | 236° |
| 2026-04-07 11:22 | 48.59870 | 9.22716 | 6806 ft | 270 kts | 236° |
| 2026-04-07 11:22 | 48.58787 | 9.20379 | 7503 ft | 273 kts | 237° |
| 2026-04-07 11:23 | 48.57693 | 9.18016 | 8231 ft | 276 kts | 236° |
| 2026-04-07 11:23 | 48.56588 | 9.15637 | 8920 ft | 278 kts | 237° |
| 2026-04-07 11:23 | 48.55469 | 9.13243 | 9596 ft | 281 kts | 237° |
| 2026-04-07 11:23 | 48.54334 | 9.10821 | 10238 ft | 285 kts | 237° |
| 2026-04-07 11:24 | 48.53169 | 9.08335 | 10598 ft | 300 kts | 237° |
| 2026-04-07 11:24 | 48.51924 | 9.05670 | 10729 ft | 321 kts | 237° |
| 2026-04-07 11:24 | 48.50603 | 9.02841 | 10966 ft | 337 kts | 237° |
| 2026-04-07 11:24 | 48.49242 | 8.99936 | 11480 ft | 342 kts | 237° |
| 2026-04-07 11:25 | 48.46460 | 8.94019 | 12626 ft | 349 kts | 237° |
| 2026-04-07 11:25 | 48.45048 | 8.91026 | 13186 ft | 352 kts | 237° |
| 2026-04-07 11:25 | 48.43620 | 8.88000 | 13736 ft | 356 kts | 237° |
| 2026-04-07 11:26 | 48.42182 | 8.84946 | 14179 ft | 360 kts | 237° |
| 2026-04-07 11:26 | 48.40728 | 8.81864 | 14712 ft | 362 kts | 237° |
| 2026-04-07 11:26 | 48.39261 | 8.78770 | 15249 ft | 365 kts | 237° |
| 2026-04-07 11:26 | 48.37779 | 8.75645 | 15771 ft | 368 kts | 237° |
| 2026-04-07 11:27 | 48.36286 | 8.72497 | 16288 ft | 371 kts | 237° |
| 2026-04-07 11:27 | 48.34777 | 8.69321 | 16791 ft | 374 kts | 237° |
| 2026-04-07 11:27 | 48.33259 | 8.66123 | 17275 ft | 378 kts | 237° |
| 2026-04-07 11:27 | 48.31727 | 8.62899 | 17756 ft | 381 kts | 237° |
| 2026-04-07 11:28 | 48.30179 | 8.59653 | 18217 ft | 384 kts | 237° |
| 2026-04-07 11:28 | 48.28641 | 8.56424 | 18679 ft | 386 kts | 237° |
| 2026-04-07 11:28 | 48.27072 | 8.53128 | 19139 ft | 389 kts | 237° |
| 2026-04-07 11:28 | 48.25491 | 8.49811 | 19581 ft | 392 kts | 237° |
| 2026-04-07 11:29 | 48.23899 | 8.46476 | 20010 ft | 395 kts | 237° |
| 2026-04-07 11:29 | 48.22292 | 8.43125 | 20433 ft | 397 kts | 237° |
| 2026-04-07 11:29 | 48.20672 | 8.39754 | 20862 ft | 399 kts | 237° |
| 2026-04-07 11:29 | 48.19043 | 8.36372 | 21264 ft | 402 kts | 237° |
| 2026-04-07 11:30 | 48.17269 | 8.33116 | 21653 ft | 407 kts | 228° |
| 2026-04-07 11:30 | 48.15118 | 8.30329 | 22041 ft | 412 kts | 218° |
| 2026-04-07 11:30 | 48.12711 | 8.27960 | 22422 ft | 415 kts | 215° |
| 2026-04-07 11:30 | 48.10277 | 8.25613 | 22792 ft | 417 kts | 215° |
| 2026-04-07 11:31 | 48.07830 | 8.23258 | 23153 ft | 420 kts | 215° |
| 2026-04-07 11:31 | 48.05367 | 8.20890 | 23503 ft | 422 kts | 215° |
| 2026-04-07 11:31 | 48.02886 | 8.18506 | 23851 ft | 425 kts | 215° |
| 2026-04-07 11:31 | 48.00394 | 8.16114 | 24198 ft | 427 kts | 215° |
| 2026-04-07 11:32 | 47.97886 | 8.13711 | 24556 ft | 429 kts | 214° |
| 2026-04-07 11:32 | 47.95366 | 8.11299 | 24891 ft | 432 kts | 214° |
| 2026-04-07 11:32 | 47.92828 | 8.08869 | 25226 ft | 434 kts | 214° |
| 2026-04-07 11:32 | 47.90283 | 8.06434 | 25563 ft | 436 kts | 214° |
| 2026-04-07 11:33 | 47.87726 | 8.03986 | 25870 ft | 438 kts | 214° |
| 2026-04-07 11:33 | 47.85192 | 8.01562 | 26192 ft | 440 kts | 214° |
| 2026-04-07 11:33 | 47.82606 | 7.99095 | 26500 ft | 442 kts | 214° |
| 2026-04-07 11:33 | 47.80006 | 7.96623 | 26796 ft | 444 kts | 214° |
| 2026-04-07 11:34 | 47.77394 | 7.94141 | 27081 ft | 446 kts | 214° |
| 2026-04-07 11:34 | 47.74769 | 7.91649 | 27385 ft | 448 kts | 214° |
| 2026-04-07 11:34 | 47.72137 | 7.89150 | 27672 ft | 450 kts | 214° |
| 2026-04-07 11:34 | 47.69491 | 7.86638 | 27967 ft | 452 kts | 214° |
| 2026-04-07 11:35 | 47.66836 | 7.84118 | 28255 ft | 454 kts | 214° |
| 2026-04-07 11:35 | 47.64170 | 7.81592 | 28539 ft | 456 kts | 213° |
| 2026-04-07 11:35 | 47.61490 | 7.79062 | 28819 ft | 458 kts | 213° |
| 2026-04-07 11:35 | 47.58799 | 7.76528 | 29084 ft | 459 kts | 213° |
| 2026-04-07 11:36 | 47.56097 | 7.73990 | 29337 ft | 461 kts | 213° |
| 2026-04-07 11:36 | 47.53385 | 7.71444 | 29585 ft | 462 kts | 213° |
| 2026-04-07 11:36 | 47.50664 | 7.68894 | 29829 ft | 464 kts | 213° |
| 2026-04-07 11:36 | 47.47930 | 7.66332 | 30068 ft | 466 kts | 213° |
| 2026-04-07 11:37 | 47.45192 | 7.63766 | 30291 ft | 467 kts | 213° |
| 2026-04-07 11:37 | 47.42443 | 7.61187 | 30515 ft | 469 kts | 213° |
| 2026-04-07 11:37 | 47.39687 | 7.58608 | 30745 ft | 470 kts | 213° |
| 2026-04-07 11:37 | 47.36925 | 7.56026 | 30951 ft | 471 kts | 213° |
| 2026-04-07 11:38 | 47.34159 | 7.53444 | 31202 ft | 470 kts | 213° |
| 2026-04-07 11:38 | 47.31399 | 7.50873 | 31481 ft | 469 kts | 212° |
| 2026-04-07 11:38 | 47.28645 | 7.48315 | 31759 ft | 468 kts | 212° |
| 2026-04-07 11:38 | 47.25894 | 7.45762 | 32028 ft | 467 kts | 212° |
| 2026-04-07 11:39 | 47.23148 | 7.43218 | 32305 ft | 466 kts | 212° |
| 2026-04-07 11:39 | 47.20408 | 7.40685 | 32567 ft | 464 kts | 212° |
| 2026-04-07 11:39 | 47.17779 | 7.38050 | 32806 ft | 463 kts | 219° |
| 2026-04-07 11:39 | 47.15405 | 7.34864 | 33029 ft | 462 kts | 227° |
| 2026-04-07 11:40 | 47.13346 | 7.31233 | 33250 ft | 462 kts | 232° |
| 2026-04-07 11:40 | 47.11358 | 7.27537 | 33478 ft | 462 kts | 232° |
| 2026-04-07 11:40 | 47.09360 | 7.23846 | 33706 ft | 461 kts | 231° |
| 2026-04-07 11:40 | 47.07359 | 7.20172 | 33928 ft | 461 kts | 231° |
| 2026-04-07 11:41 | 47.05357 | 7.16505 | 34155 ft | 460 kts | 231° |
| 2026-04-07 11:41 | 47.03356 | 7.12841 | 34378 ft | 460 kts | 231° |
| 2026-04-07 11:41 | 47.01360 | 7.09187 | 34595 ft | 459 kts | 231° |
| 2026-04-07 11:41 | 46.99365 | 7.05540 | 34793 ft | 459 kts | 231° |
| 2026-04-07 11:42 | 46.97369 | 7.01898 | 35006 ft | 458 kts | 231° |
| 2026-04-07 11:42 | 46.95372 | 6.98261 | 35204 ft | 458 kts | 231° |
| 2026-04-07 11:42 | 46.91384 | 6.91025 | 35283 ft | 454 kts | 231° |
| 2026-04-07 11:43 | 46.87426 | 6.83841 | 35281 ft | 453 kts | 231° |
| 2026-04-07 11:43 | 46.83471 | 6.76672 | 35275 ft | 453 kts | 230° |
| 2026-04-07 11:44 | 46.79502 | 6.69513 | 35280 ft | 454 kts | 230° |
| 2026-04-07 11:44 | 46.75523 | 6.62372 | 35277 ft | 453 kts | 230° |
| 2026-04-07 11:45 | 46.71543 | 6.55234 | 35279 ft | 454 kts | 230° |
| 2026-04-07 11:45 | 46.67557 | 6.48103 | 35280 ft | 454 kts | 230° |
| 2026-04-07 11:46 | 46.63570 | 6.40981 | 35283 ft | 454 kts | 230° |
| 2026-04-07 11:46 | 46.59606 | 6.33917 | 35284 ft | 454 kts | 230° |
| 2026-04-07 11:47 | 46.55597 | 6.26813 | 35287 ft | 454 kts | 230° |
| 2026-04-07 11:47 | 46.51578 | 6.19713 | 35288 ft | 455 kts | 229° |
| 2026-04-07 11:48 | 46.47563 | 6.12624 | 35291 ft | 455 kts | 229° |
| 2026-04-07 11:48 | 46.43549 | 6.05543 | 35291 ft | 454 kts | 229° |
| 2026-04-07 11:49 | 46.39528 | 5.98476 | 35292 ft | 454 kts | 229° |
| 2026-04-07 11:49 | 46.35502 | 5.91429 | 35294 ft | 454 kts | 229° |
| 2026-04-07 11:50 | 46.31472 | 5.84395 | 35294 ft | 454 kts | 229° |
| 2026-04-07 11:50 | 46.27439 | 5.77368 | 35295 ft | 454 kts | 229° |
| 2026-04-07 11:51 | 46.23400 | 5.70341 | 35292 ft | 454 kts | 229° |
| 2026-04-07 11:51 | 46.19363 | 5.63330 | 35284 ft | 454 kts | 229° |
| 2026-04-07 11:52 | 46.15321 | 5.56332 | 35284 ft | 454 kts | 230° |
| 2026-04-07 11:52 | 46.11665 | 5.48891 | 35286 ft | 455 kts | 234° |
| 2026-04-07 11:53 | 46.08070 | 5.41398 | 35276 ft | 454 kts | 234° |
| 2026-04-07 11:53 | 46.04488 | 5.33966 | 35277 ft | 454 kts | 234° |
| 2026-04-07 11:54 | 46.00887 | 5.26502 | 35287 ft | 454 kts | 234° |
| 2026-04-07 11:54 | 45.97281 | 5.19043 | 35276 ft | 454 kts | 233° |
| 2026-04-07 11:55 | 45.93665 | 5.11581 | 35253 ft | 455 kts | 233° |
| 2026-04-07 11:55 | 45.90038 | 5.04121 | 35266 ft | 456 kts | 233° |
| 2026-04-07 11:56 | 45.86395 | 4.96659 | 35260 ft | 457 kts | 233° |
| 2026-04-07 11:56 | 45.82747 | 4.89192 | 35269 ft | 457 kts | 233° |
| 2026-04-07 11:57 | 45.79096 | 4.81732 | 35258 ft | 457 kts | 233° |
| 2026-04-07 11:57 | 45.75431 | 4.74282 | 35277 ft | 458 kts | 233° |
| 2026-04-07 11:58 | 45.71759 | 4.66839 | 35260 ft | 457 kts | 233° |
| 2026-04-07 11:58 | 45.68089 | 4.59398 | 35260 ft | 457 kts | 233° |
| 2026-04-07 11:59 | 45.64420 | 4.51982 | 35264 ft | 456 kts | 232° |
| 2026-04-07 11:59 | 45.60747 | 4.44595 | 35249 ft | 456 kts | 232° |
| 2026-04-07 12:00 | 45.57069 | 4.37213 | 35245 ft | 456 kts | 232° |
| 2026-04-07 12:00 | 45.53392 | 4.29835 | 35241 ft | 456 kts | 232° |
| 2026-04-07 12:01 | 45.49715 | 4.22475 | 35236 ft | 456 kts | 232° |
| 2026-04-07 12:01 | 45.46027 | 4.15122 | 35237 ft | 456 kts | 232° |
| 2026-04-07 12:02 | 45.42337 | 4.07785 | 35239 ft | 456 kts | 232° |
| 2026-04-07 12:02 | 45.38665 | 4.00507 | 35241 ft | 456 kts | 232° |
| 2026-04-07 12:03 | 45.34958 | 3.93192 | 35250 ft | 456 kts | 232° |
| 2026-04-07 12:03 | 45.31252 | 3.85891 | 35261 ft | 455 kts | 232° |
| 2026-04-07 12:04 | 45.27547 | 3.78590 | 35268 ft | 455 kts | 232° |
| 2026-04-07 12:04 | 45.23848 | 3.71291 | 35275 ft | 455 kts | 233° |
| 2026-04-07 12:05 | 45.20224 | 3.63923 | 35284 ft | 455 kts | 233° |
| 2026-04-07 12:05 | 45.16618 | 3.56543 | 35281 ft | 455 kts | 233° |
| 2026-04-07 12:06 | 45.12994 | 3.49188 | 35280 ft | 455 kts | 233° |
| 2026-04-07 12:06 | 45.09352 | 3.41858 | 35282 ft | 455 kts | 233° |
| 2026-04-07 12:07 | 45.06320 | 3.35772 | 35279 ft | 455 kts | 233° |
| 2026-04-07 12:07 | 45.02678 | 3.28458 | 35268 ft | 455 kts | 233° |
| 2026-04-07 12:08 | 44.99035 | 3.21151 | 35283 ft | 455 kts | 233° |
| 2026-04-07 12:08 | 44.95377 | 3.13851 | 35270 ft | 455 kts | 232° |
| 2026-04-07 12:09 | 44.91710 | 3.06567 | 35279 ft | 455 kts | 233° |
| 2026-04-07 12:09 | 44.88044 | 2.99279 | 35265 ft | 455 kts | 232° |
| 2026-04-07 12:10 | 44.84377 | 2.91996 | 35264 ft | 456 kts | 233° |
| 2026-04-07 12:10 | 44.80860 | 2.84562 | 35256 ft | 456 kts | 236° |
| 2026-04-07 12:11 | 44.77469 | 2.77021 | 35253 ft | 455 kts | 236° |
| 2026-04-07 12:11 | 44.74065 | 2.69513 | 35252 ft | 455 kts | 235° |
| 2026-04-07 12:12 | 44.70616 | 2.62067 | 35248 ft | 454 kts | 235° |
| 2026-04-07 12:12 | 44.67153 | 2.54646 | 35246 ft | 454 kts | 235° |
| 2026-04-07 12:13 | 44.63714 | 2.47274 | 35244 ft | 454 kts | 235° |
| 2026-04-07 12:13 | 44.60256 | 2.39869 | 35241 ft | 453 kts | 235° |
| 2026-04-07 12:14 | 44.56798 | 2.32484 | 35245 ft | 452 kts | 234° |
| 2026-04-07 12:14 | 44.53343 | 2.25113 | 35247 ft | 452 kts | 234° |
| 2026-04-07 12:15 | 44.49891 | 2.17769 | 35249 ft | 451 kts | 234° |
| 2026-04-07 12:15 | 44.46437 | 2.10452 | 35245 ft | 450 kts | 234° |
| 2026-04-07 12:16 | 44.42982 | 2.03161 | 35238 ft | 449 kts | 234° |
| 2026-04-07 12:16 | 44.39533 | 1.95883 | 35235 ft | 449 kts | 234° |
| 2026-04-07 12:17 | 44.36081 | 1.88617 | 35233 ft | 448 kts | 234° |
| 2026-04-07 12:17 | 44.32633 | 1.81377 | 35225 ft | 447 kts | 234° |
| 2026-04-07 12:18 | 44.29175 | 1.74156 | 35217 ft | 447 kts | 234° |
| 2026-04-07 12:18 | 44.25783 | 1.66870 | 35213 ft | 447 kts | 236° |
| 2026-04-07 12:19 | 44.22453 | 1.59545 | 35208 ft | 447 kts | 236° |
| 2026-04-07 12:19 | 44.19109 | 1.52240 | 35204 ft | 446 kts | 235° |
| 2026-04-07 12:20 | 44.15751 | 1.44966 | 35196 ft | 447 kts | 236° |
| 2026-04-07 12:20 | 44.12386 | 1.37701 | 35191 ft | 446 kts | 236° |
| 2026-04-07 12:21 | 44.09045 | 1.30495 | 35184 ft | 446 kts | 236° |
| 2026-04-07 12:21 | 44.05679 | 1.23254 | 35182 ft | 445 kts | 236° |
| 2026-04-07 12:22 | 44.02314 | 1.16040 | 35177 ft | 445 kts | 236° |
| 2026-04-07 12:22 | 43.98941 | 1.08836 | 35176 ft | 445 kts | 236° |
| 2026-04-07 12:23 | 43.95564 | 1.01652 | 35176 ft | 444 kts | 236° |
| 2026-04-07 12:23 | 43.92194 | 0.94473 | 35177 ft | 444 kts | 236° |
| 2026-04-07 12:24 | 43.88818 | 0.87316 | 35181 ft | 443 kts | 236° |
| 2026-04-07 12:24 | 43.85571 | 0.80057 | 35177 ft | 443 kts | 239° |
| 2026-04-07 12:25 | 43.82469 | 0.72679 | 35174 ft | 443 kts | 239° |
| 2026-04-07 12:25 | 43.79362 | 0.65324 | 35173 ft | 442 kts | 239° |
| 2026-04-07 12:26 | 43.76210 | 0.58016 | 35172 ft | 442 kts | 238° |
| 2026-04-07 12:26 | 43.73040 | 0.50736 | 35168 ft | 441 kts | 238° |
| 2026-04-07 12:27 | 43.69874 | 0.43468 | 35164 ft | 441 kts | 238° |
| 2026-04-07 12:27 | 43.66715 | 0.36215 | 35164 ft | 441 kts | 238° |
| 2026-04-07 12:28 | 43.63545 | 0.28969 | 35162 ft | 441 kts | 238° |
| 2026-04-07 12:29 | 43.58792 | 0.18128 | 35157 ft | 440 kts | 238° |
| 2026-04-07 12:29 | 43.55618 | 0.10919 | 35157 ft | 440 kts | 238° |
| 2026-04-07 12:30 | 43.52440 | 0.03717 | 35156 ft | 439 kts | 238° |
| 2026-04-07 12:30 | 43.49268 | -0.03475 | 35157 ft | 439 kts | 238° |
| 2026-04-07 12:31 | 43.46117 | -0.10599 | 35155 ft | 437 kts | 237° |
| 2026-04-07 12:31 | 43.42954 | -0.17727 | 35150 ft | 435 kts | 237° |
| 2026-04-07 12:32 | 43.39797 | -0.24824 | 35148 ft | 435 kts | 237° |
| 2026-04-07 12:32 | 43.36639 | -0.31899 | 35139 ft | 434 kts | 237° |
| 2026-04-07 12:33 | 43.33476 | -0.38969 | 35138 ft | 434 kts | 237° |
| 2026-04-07 12:33 | 43.30315 | -0.46018 | 35134 ft | 433 kts | 237° |
| 2026-04-07 12:34 | 43.27157 | -0.53056 | 35133 ft | 433 kts | 237° |
| 2026-04-07 12:34 | 43.23996 | -0.60078 | 35130 ft | 433 kts | 237° |
| 2026-04-07 12:35 | 43.20824 | -0.67095 | 35135 ft | 433 kts | 237° |
| 2026-04-07 12:35 | 43.17650 | -0.74097 | 35133 ft | 433 kts | 237° |
| 2026-04-07 12:36 | 43.14493 | -0.81050 | 35138 ft | 433 kts | 236° |
| 2026-04-07 12:36 | 43.11316 | -0.88043 | 35140 ft | 432 kts | 237° |
| 2026-04-07 12:37 | 43.08130 | -0.95032 | 35139 ft | 433 kts | 236° |
| 2026-04-07 12:37 | 43.04943 | -1.02002 | 35147 ft | 432 kts | 236° |
| 2026-04-07 12:38 | 43.01748 | -1.08965 | 35147 ft | 432 kts | 236° |
| 2026-04-07 12:38 | 42.98553 | -1.15928 | 35146 ft | 432 kts | 236° |
| 2026-04-07 12:39 | 42.95358 | -1.22874 | 35148 ft | 432 kts | 236° |
| 2026-04-07 12:39 | 42.92157 | -1.29821 | 35154 ft | 432 kts | 236° |
| 2026-04-07 12:40 | 42.88950 | -1.36757 | 35160 ft | 432 kts | 236° |
| 2026-04-07 12:40 | 42.85738 | -1.43683 | 35168 ft | 432 kts | 236° |
| 2026-04-07 12:41 | 42.82524 | -1.50603 | 35175 ft | 432 kts | 236° |
| 2026-04-07 12:41 | 42.79300 | -1.57506 | 35180 ft | 432 kts | 236° |
| 2026-04-07 12:42 | 42.76074 | -1.64412 | 35182 ft | 432 kts | 236° |
| 2026-04-07 12:42 | 42.73136 | -1.71524 | 35181 ft | 434 kts | 247° |
| 2026-04-07 12:43 | 42.71325 | -1.79307 | 35184 ft | 435 kts | 251° |
| 2026-04-07 12:43 | 42.69566 | -1.87169 | 35183 ft | 435 kts | 251° |
| 2026-04-07 12:44 | 42.67789 | -1.95021 | 35182 ft | 435 kts | 251° |
| 2026-04-07 12:44 | 42.65998 | -2.02862 | 35179 ft | 434 kts | 251° |
| 2026-04-07 12:45 | 42.64212 | -2.10698 | 35175 ft | 434 kts | 250° |
| 2026-04-07 12:45 | 42.62415 | -2.18539 | 35174 ft | 434 kts | 250° |
| 2026-04-07 12:46 | 42.60536 | -2.26331 | 35171 ft | 434 kts | 249° |
| 2026-04-07 12:46 | 42.58615 | -2.34103 | 35171 ft | 434 kts | 249° |
| 2026-04-07 12:47 | 42.56710 | -2.41884 | 35171 ft | 434 kts | 249° |
| 2026-04-07 12:47 | 42.54810 | -2.49659 | 35173 ft | 434 kts | 249° |
| 2026-04-07 12:48 | 42.52917 | -2.57377 | 35174 ft | 435 kts | 249° |
| 2026-04-07 12:48 | 42.51005 | -2.65151 | 35171 ft | 435 kts | 249° |
| 2026-04-07 12:49 | 42.49089 | -2.72916 | 35168 ft | 435 kts | 249° |
| 2026-04-07 12:49 | 42.47162 | -2.80669 | 35162 ft | 434 kts | 249° |
| 2026-04-07 12:50 | 42.45197 | -2.88403 | 35158 ft | 433 kts | 244° |
| 2026-04-07 12:50 | 42.42710 | -2.95802 | 35151 ft | 432 kts | 242° |
| 2026-04-07 12:51 | 42.40199 | -3.03185 | 35143 ft | 431 kts | 242° |
| 2026-04-07 12:51 | 42.37682 | -3.10550 | 35142 ft | 432 kts | 242° |
| 2026-04-07 12:52 | 42.35157 | -3.17914 | 35137 ft | 432 kts | 242° |
| 2026-04-07 12:52 | 42.32631 | -3.25272 | 35147 ft | 431 kts | 242° |
| 2026-04-07 12:53 | 42.30111 | -3.32615 | 35152 ft | 431 kts | 242° |
| 2026-04-07 12:53 | 42.27584 | -3.39947 | 35154 ft | 430 kts | 241° |
| 2026-04-07 12:54 | 42.25065 | -3.47212 | 35152 ft | 430 kts | 241° |
| 2026-04-07 12:54 | 42.22525 | -3.54518 | 35154 ft | 430 kts | 241° |
| 2026-04-07 12:55 | 42.19990 | -3.61817 | 35156 ft | 430 kts | 241° |
| 2026-04-07 12:55 | 42.17457 | -3.69109 | 35159 ft | 429 kts | 241° |
| 2026-04-07 12:56 | 42.14917 | -3.76387 | 35159 ft | 429 kts | 240° |
| 2026-04-07 12:56 | 42.12371 | -3.83647 | 35155 ft | 428 kts | 240° |
| 2026-04-07 12:57 | 42.10251 | -3.89677 | 35152 ft | 428 kts | 240° |
| 2026-04-07 12:57 | 42.07703 | -3.96922 | 35148 ft | 428 kts | 240° |
| 2026-04-07 12:58 | 42.05145 | -4.04155 | 35147 ft | 428 kts | 240° |
| 2026-04-07 12:58 | 42.02199 | -4.11031 | 35139 ft | 421 kts | 227° |
| 2026-04-07 12:59 | 41.98045 | -4.16454 | 35137 ft | 416 kts | 218° |
| 2026-04-07 12:59 | 41.93678 | -4.21561 | 35131 ft | 416 kts | 218° |
| 2026-04-07 13:00 | 41.89317 | -4.26664 | 35128 ft | 416 kts | 218° |
| 2026-04-07 13:00 | 41.84951 | -4.31761 | 35126 ft | 416 kts | 218° |
| 2026-04-07 13:01 | 41.80580 | -4.36848 | 35121 ft | 415 kts | 218° |
| 2026-04-07 13:01 | 41.76218 | -4.41912 | 35119 ft | 415 kts | 218° |
| 2026-04-07 13:02 | 41.71851 | -4.46980 | 35115 ft | 415 kts | 218° |
| 2026-04-07 13:02 | 41.67515 | -4.52011 | 35112 ft | 415 kts | 218° |
| 2026-04-07 13:03 | 41.63151 | -4.57059 | 35111 ft | 415 kts | 218° |
| 2026-04-07 13:03 | 41.58791 | -4.62100 | 35112 ft | 414 kts | 218° |
| 2026-04-07 13:04 | 41.54434 | -4.67121 | 35111 ft | 414 kts | 218° |
| 2026-04-07 13:04 | 41.50075 | -4.72132 | 35108 ft | 414 kts | 218° |
| 2026-04-07 13:05 | 41.45712 | -4.77138 | 35109 ft | 413 kts | 218° |
| 2026-04-07 13:05 | 41.41353 | -4.82131 | 35107 ft | 413 kts | 217° |
| 2026-04-07 13:06 | 41.36999 | -4.87118 | 35109 ft | 413 kts | 218° |
| 2026-04-07 13:06 | 41.32643 | -4.92101 | 35111 ft | 412 kts | 217° |
| 2026-04-07 13:07 | 41.28287 | -4.97052 | 35110 ft | 412 kts | 217° |
| 2026-04-07 13:07 | 41.23932 | -5.01999 | 35110 ft | 412 kts | 217° |
| 2026-04-07 13:08 | 41.19582 | -5.06939 | 35111 ft | 411 kts | 217° |
| 2026-04-07 13:08 | 41.15231 | -5.11868 | 35109 ft | 411 kts | 217° |
| 2026-04-07 13:09 | 41.10882 | -5.16784 | 35111 ft | 411 kts | 217° |
| 2026-04-07 13:09 | 41.06563 | -5.21665 | 35109 ft | 410 kts | 217° |
| 2026-04-07 13:10 | 41.02223 | -5.26562 | 35109 ft | 411 kts | 217° |
| 2026-04-07 13:10 | 40.97868 | -5.31452 | 35105 ft | 410 kts | 217° |
| 2026-04-07 13:11 | 40.93518 | -5.36329 | 35103 ft | 410 kts | 217° |
| 2026-04-07 13:11 | 40.89175 | -5.41197 | 35104 ft | 409 kts | 217° |
| 2026-04-07 13:12 | 40.84837 | -5.46053 | 35103 ft | 408 kts | 217° |
| 2026-04-07 13:12 | 40.80496 | -5.50895 | 35103 ft | 408 kts | 217° |
| 2026-04-07 13:13 | 40.76166 | -5.55718 | 35103 ft | 407 kts | 217° |
| 2026-04-07 13:13 | 40.71838 | -5.60538 | 35104 ft | 407 kts | 217° |
| 2026-04-07 13:14 | 40.67516 | -5.65350 | 35096 ft | 407 kts | 217° |
| 2026-04-07 13:14 | 40.63190 | -5.70144 | 35083 ft | 406 kts | 217° |
| 2026-04-07 13:15 | 40.58869 | -5.74924 | 35082 ft | 405 kts | 217° |
| 2026-04-07 13:15 | 40.54556 | -5.79693 | 35081 ft | 405 kts | 217° |
| 2026-04-07 13:16 | 40.50246 | -5.84441 | 35088 ft | 404 kts | 216° |
| 2026-04-07 13:16 | 40.45940 | -5.89168 | 35077 ft | 403 kts | 216° |
| 2026-04-07 13:17 | 40.41644 | -5.93900 | 35079 ft | 403 kts | 216° |
| 2026-04-07 13:17 | 40.37376 | -5.98585 | 35072 ft | 402 kts | 216° |
| 2026-04-07 13:18 | 40.33090 | -6.03292 | 35075 ft | 402 kts | 216° |
| 2026-04-07 13:18 | 40.28806 | -6.07994 | 35081 ft | 401 kts | 216° |
| 2026-04-07 13:19 | 40.24525 | -6.12665 | 35068 ft | 400 kts | 216° |
| 2026-04-07 13:19 | 40.20241 | -6.17321 | 35064 ft | 400 kts | 216° |
| 2026-04-07 13:20 | 40.15960 | -6.21969 | 35057 ft | 400 kts | 216° |
| 2026-04-07 13:20 | 40.11683 | -6.26614 | 35053 ft | 399 kts | 216° |
| 2026-04-07 13:21 | 40.07408 | -6.31249 | 35049 ft | 400 kts | 216° |
| 2026-04-07 13:21 | 40.03130 | -6.35880 | 35043 ft | 399 kts | 216° |
| 2026-04-07 13:22 | 39.98859 | -6.40512 | 35041 ft | 399 kts | 216° |
| 2026-04-07 13:22 | 39.94583 | -6.45134 | 35042 ft | 399 kts | 216° |
| 2026-04-07 13:23 | 39.90302 | -6.49742 | 35043 ft | 399 kts | 216° |
| 2026-04-07 13:23 | 39.86017 | -6.54343 | 35045 ft | 399 kts | 216° |
| 2026-04-07 13:24 | 39.81740 | -6.58935 | 35043 ft | 398 kts | 216° |
| 2026-04-07 13:24 | 39.77464 | -6.63519 | 35038 ft | 399 kts | 216° |
| 2026-04-07 13:25 | 39.73213 | -6.68062 | 35036 ft | 398 kts | 215° |
| 2026-04-07 13:25 | 39.68942 | -6.72619 | 35034 ft | 397 kts | 215° |
| 2026-04-07 13:26 | 39.64675 | -6.77175 | 35032 ft | 397 kts | 215° |
| 2026-04-07 13:26 | 39.60407 | -6.81724 | 35031 ft | 397 kts | 215° |
| 2026-04-07 13:27 | 39.56139 | -6.86262 | 35030 ft | 396 kts | 215° |
| 2026-04-07 13:27 | 39.51874 | -6.90779 | 35026 ft | 396 kts | 215° |
| 2026-04-07 13:28 | 39.47603 | -6.95294 | 35023 ft | 396 kts | 215° |
| 2026-04-07 13:28 | 39.43334 | -6.99816 | 35022 ft | 397 kts | 215° |
| 2026-04-07 13:29 | 39.39065 | -7.04324 | 35026 ft | 396 kts | 215° |
| 2026-04-07 13:29 | 39.34791 | -7.08827 | 35027 ft | 396 kts | 214° |
| 2026-04-07 13:30 | 39.30521 | -7.13317 | 35024 ft | 396 kts | 214° |
| 2026-04-07 13:30 | 39.26256 | -7.17800 | 35022 ft | 395 kts | 214° |
| 2026-04-07 13:31 | 39.22005 | -7.22317 | 35024 ft | 397 kts | 218° |
| 2026-04-07 13:31 | 39.18196 | -7.27540 | 35023 ft | 400 kts | 222° |
| 2026-04-07 13:32 | 39.14415 | -7.32792 | 35023 ft | 400 kts | 222° |
| 2026-04-07 13:32 | 39.10625 | -7.38031 | 35020 ft | 399 kts | 221° |
| 2026-04-07 13:33 | 39.06838 | -7.43258 | 35021 ft | 399 kts | 221° |
| 2026-04-07 13:33 | 39.01158 | -7.51091 | 35016 ft | 399 kts | 221° |
| 2026-04-07 13:34 | 38.97376 | -7.56307 | 35020 ft | 399 kts | 221° |
| 2026-04-07 13:34 | 38.93589 | -7.61517 | 35015 ft | 399 kts | 221° |
| 2026-04-07 13:35 | 38.89792 | -7.66714 | 35023 ft | 399 kts | 221° |
| 2026-04-07 13:35 | 38.85994 | -7.71909 | 35020 ft | 399 kts | 221° |
| 2026-04-07 13:36 | 38.82196 | -7.77104 | 35028 ft | 399 kts | 221° |
| 2026-04-07 13:36 | 38.78418 | -7.82264 | 35035 ft | 399 kts | 221° |
| 2026-04-07 13:37 | 38.74613 | -7.87457 | 35041 ft | 399 kts | 221° |
| 2026-04-07 13:37 | 38.70809 | -7.92631 | 35044 ft | 399 kts | 221° |
| 2026-04-07 13:38 | 38.66997 | -7.97803 | 35046 ft | 399 kts | 221° |
| 2026-04-07 13:38 | 38.63186 | -8.02969 | 35046 ft | 399 kts | 221° |
| 2026-04-07 13:39 | 38.59376 | -8.08126 | 35045 ft | 399 kts | 221° |
| 2026-04-07 13:39 | 38.55564 | -8.13279 | 35044 ft | 399 kts | 221° |
| 2026-04-07 13:40 | 38.51743 | -8.18437 | 35050 ft | 399 kts | 221° |
| 2026-04-07 13:40 | 38.47923 | -8.23584 | 35052 ft | 399 kts | 221° |
| 2026-04-07 13:41 | 38.44100 | -8.28722 | 35056 ft | 399 kts | 221° |
| 2026-04-07 13:41 | 38.40267 | -8.33861 | 35054 ft | 399 kts | 221° |
| 2026-04-07 13:42 | 38.36442 | -8.38991 | 35055 ft | 399 kts | 221° |
| 2026-04-07 13:42 | 38.32636 | -8.44088 | 35057 ft | 400 kts | 221° |
| 2026-04-07 13:43 | 38.28801 | -8.49222 | 35059 ft | 400 kts | 221° |
| 2026-04-07 13:43 | 38.24967 | -8.54342 | 35060 ft | 400 kts | 221° |
| 2026-04-07 13:44 | 38.21124 | -8.59443 | 35057 ft | 399 kts | 221° |
| 2026-04-07 13:44 | 38.17287 | -8.64529 | 35061 ft | 399 kts | 221° |
| 2026-04-07 13:45 | 38.14075 | -8.68795 | 35061 ft | 399 kts | 221° |
| 2026-04-07 13:45 | 38.10268 | -8.73854 | 35057 ft | 399 kts | 221° |
| 2026-04-07 13:46 | 38.06428 | -8.78929 | 35054 ft | 398 kts | 221° |
| 2026-04-07 13:46 | 38.02590 | -8.83993 | 35053 ft | 398 kts | 221° |
| 2026-04-07 13:47 | 37.98755 | -8.89058 | 35052 ft | 398 kts | 222° |
| 2026-04-07 13:47 | 37.94919 | -8.94111 | 35057 ft | 398 kts | 222° |
| 2026-04-07 13:48 | 37.91087 | -8.99153 | 35059 ft | 397 kts | 222° |
| 2026-04-07 13:48 | 37.87256 | -9.04188 | 35067 ft | 397 kts | 222° |
| 2026-04-07 13:49 | 37.83425 | -9.09210 | 35073 ft | 396 kts | 223° |
| 2026-04-07 13:49 | 37.79591 | -9.14218 | 35065 ft | 396 kts | 222° |
| 2026-04-07 13:50 | 37.75762 | -9.19224 | 35066 ft | 396 kts | 222° |
| 2026-04-07 13:50 | 37.71929 | -9.24219 | 35064 ft | 396 kts | 222° |
| 2026-04-07 13:51 | 37.68092 | -9.29205 | 35066 ft | 396 kts | 223° |
| 2026-04-07 13:51 | 37.64262 | -9.34194 | 35061 ft | 396 kts | 222° |
| 2026-04-07 13:52 | 37.60427 | -9.39181 | 35059 ft | 395 kts | 222° |
| 2026-04-07 13:52 | 37.56589 | -9.44154 | 35065 ft | 395 kts | 222° |
| 2026-04-07 13:53 | 37.52754 | -9.49119 | 35066 ft | 395 kts | 222° |
| 2026-04-07 13:53 | 37.48921 | -9.54083 | 35070 ft | 395 kts | 222° |
| 2026-04-07 13:54 | 37.45105 | -9.59004 | 35074 ft | 395 kts | 222° |
| 2026-04-07 13:54 | 37.41265 | -9.63946 | 35080 ft | 395 kts | 222° |
| 2026-04-07 13:55 | 37.37432 | -9.68882 | 35074 ft | 394 kts | 222° |
| 2026-04-07 13:55 | 37.33593 | -9.73807 | 35079 ft | 394 kts | 222° |
| 2026-04-07 13:56 | 37.29756 | -9.78720 | 35076 ft | 394 kts | 222° |
| 2026-04-07 13:56 | 37.25917 | -9.83626 | 35074 ft | 394 kts | 222° |
| 2026-04-07 13:57 | 37.22079 | -9.88534 | 35085 ft | 394 kts | 223° |
| 2026-04-07 13:57 | 37.18244 | -9.93430 | 35084 ft | 394 kts | 223° |
| 2026-04-07 13:58 | 37.14403 | -9.98322 | 35087 ft | 393 kts | 223° |
| 2026-04-07 13:58 | 37.10566 | -10.03197 | 35081 ft | 393 kts | 223° |
| 2026-04-07 13:59 | 37.06726 | -10.08077 | 35077 ft | 393 kts | 223° |
| 2026-04-07 13:59 | 37.02883 | -10.12955 | 35088 ft | 394 kts | 223° |
| 2026-04-07 14:00 | 36.99037 | -10.17831 | 35083 ft | 394 kts | 223° |
| 2026-04-07 14:00 | 36.95217 | -10.22667 | 35086 ft | 393 kts | 224° |
| 2026-04-07 14:01 | 36.91369 | -10.27528 | 35094 ft | 393 kts | 224° |
| 2026-04-07 14:01 | 36.87521 | -10.32372 | 35097 ft | 393 kts | 224° |
| 2026-04-07 14:02 | 36.83677 | -10.37216 | 35093 ft | 393 kts | 224° |
| 2026-04-07 14:02 | 36.79831 | -10.42052 | 35097 ft | 392 kts | 224° |
| 2026-04-07 14:03 | 36.75979 | -10.46878 | 35098 ft | 392 kts | 224° |
| 2026-04-07 14:03 | 36.72129 | -10.51699 | 35100 ft | 392 kts | 224° |
| 2026-04-07 14:04 | 36.68279 | -10.56515 | 35099 ft | 392 kts | 224° |
| 2026-04-07 14:04 | 36.64433 | -10.61333 | 35102 ft | 392 kts | 224° |
| 2026-04-07 14:05 | 36.60582 | -10.66142 | 35101 ft | 392 kts | 224° |
| 2026-04-07 14:05 | 36.56725 | -10.70939 | 35100 ft | 393 kts | 224° |
| 2026-04-07 14:06 | 36.52885 | -10.75712 | 35102 ft | 393 kts | 224° |
| 2026-04-07 14:06 | 36.49017 | -10.80512 | 35109 ft | 393 kts | 224° |
| 2026-04-07 14:07 | 36.45148 | -10.85313 | 35115 ft | 393 kts | 224° |
| 2026-04-07 14:07 | 36.41288 | -10.90107 | 35116 ft | 393 kts | 225° |
| 2026-04-07 14:08 | 36.37421 | -10.94893 | 35115 ft | 393 kts | 225° |
| 2026-04-07 14:08 | 36.33540 | -10.99673 | 35117 ft | 393 kts | 225° |
| 2026-04-07 14:09 | 36.29654 | -11.04449 | 35116 ft | 393 kts | 225° |
| 2026-04-07 14:09 | 36.25771 | -11.09241 | 35109 ft | 394 kts | 225° |
| 2026-04-07 14:10 | 36.21886 | -11.14020 | 35109 ft | 394 kts | 225° |
| 2026-04-07 14:10 | 36.17986 | -11.18798 | 35111 ft | 395 kts | 225° |
| 2026-04-07 14:11 | 36.14077 | -11.23583 | 35115 ft | 395 kts | 225° |
| 2026-04-07 14:11 | 36.10168 | -11.28370 | 35119 ft | 396 kts | 225° |
| 2026-04-07 14:12 | 36.06250 | -11.33158 | 35120 ft | 396 kts | 226° |
| 2026-04-07 14:12 | 36.02322 | -11.37943 | 35127 ft | 396 kts | 226° |
| 2026-04-07 14:13 | 35.98391 | -11.42723 | 35129 ft | 397 kts | 226° |
| 2026-04-07 14:13 | 35.94128 | -11.47069 | 35136 ft | 399 kts | 219° |
| 2026-04-07 14:14 | 35.89609 | -11.51041 | 35135 ft | 399 kts | 219° |
| 2026-04-07 14:14 | 35.85093 | -11.55009 | 35134 ft | 399 kts | 219° |
| 2026-04-07 14:15 | 35.80572 | -11.58969 | 35132 ft | 399 kts | 219° |
| 2026-04-07 14:15 | 35.76075 | -11.62908 | 35139 ft | 399 kts | 219° |
| 2026-04-07 14:16 | 35.71549 | -11.66867 | 35142 ft | 399 kts | 219° |
| 2026-04-07 14:16 | 35.67021 | -11.70823 | 35146 ft | 399 kts | 219° |
| 2026-04-07 14:17 | 35.62487 | -11.74779 | 35147 ft | 400 kts | 219° |
| 2026-04-07 14:17 | 35.57948 | -11.78738 | 35154 ft | 400 kts | 219° |
| 2026-04-07 14:18 | 35.53405 | -11.82689 | 35162 ft | 400 kts | 219° |
| 2026-04-07 14:18 | 35.48857 | -11.86627 | 35167 ft | 400 kts | 219° |
| 2026-04-07 14:19 | 35.44300 | -11.90579 | 35229 ft | 404 kts | 219° |
| 2026-04-07 14:19 | 35.42002 | -11.92576 | 35347 ft | 406 kts | 219° |
| 2026-04-07 14:19 | 35.39694 | -11.94577 | 35475 ft | 406 kts | 219° |
| 2026-04-07 14:20 | 35.37383 | -11.96575 | 35602 ft | 406 kts | 219° |
| 2026-04-07 14:20 | 35.35071 | -11.98569 | 35731 ft | 406 kts | 219° |
| 2026-04-07 14:20 | 35.32763 | -12.00559 | 35855 ft | 406 kts | 219° |
| 2026-04-07 14:20 | 35.30486 | -12.02520 | 35977 ft | 406 kts | 219° |
| 2026-04-07 14:21 | 35.28170 | -12.04516 | 36101 ft | 408 kts | 219° |
| 2026-04-07 14:21 | 35.25852 | -12.06517 | 36223 ft | 408 kts | 220° |
| 2026-04-07 14:21 | 35.23526 | -12.08520 | 36350 ft | 409 kts | 220° |
| 2026-04-07 14:21 | 35.21199 | -12.10523 | 36471 ft | 409 kts | 220° |
| 2026-04-07 14:22 | 35.18875 | -12.12522 | 36592 ft | 409 kts | 220° |
| 2026-04-07 14:22 | 35.16552 | -12.14514 | 36720 ft | 406 kts | 220° |
| 2026-04-07 14:22 | 35.14247 | -12.16488 | 36841 ft | 403 kts | 220° |
| 2026-04-07 14:22 | 35.11954 | -12.18453 | 36965 ft | 402 kts | 220° |
| 2026-04-07 14:23 | 35.09668 | -12.20414 | 37119 ft | 402 kts | 220° |
| 2026-04-07 14:23 | 35.07383 | -12.22379 | 37172 ft | 402 kts | 220° |
| 2026-04-07 14:23 | 35.02808 | -12.26302 | 37180 ft | 402 kts | 220° |
| 2026-04-07 14:24 | 34.98236 | -12.30209 | 37188 ft | 401 kts | 220° |
| 2026-04-07 14:24 | 34.93661 | -12.34118 | 37183 ft | 401 kts | 220° |
| 2026-04-07 14:25 | 34.89092 | -12.38015 | 37190 ft | 401 kts | 220° |
| 2026-04-07 14:25 | 34.84510 | -12.41907 | 37196 ft | 402 kts | 220° |
| 2026-04-07 14:26 | 34.79928 | -12.45808 | 37196 ft | 402 kts | 220° |
| 2026-04-07 14:26 | 34.75338 | -12.49708 | 37202 ft | 402 kts | 220° |
| 2026-04-07 14:27 | 34.70747 | -12.53594 | 37200 ft | 402 kts | 220° |
| 2026-04-07 14:27 | 34.66152 | -12.57483 | 37204 ft | 403 kts | 220° |
| 2026-04-07 14:28 | 34.61588 | -12.61351 | 37207 ft | 402 kts | 220° |
| 2026-04-07 14:28 | 34.56987 | -12.65246 | 37214 ft | 403 kts | 220° |
| 2026-04-07 14:29 | 34.52374 | -12.69127 | 37219 ft | 404 kts | 220° |
| 2026-04-07 14:29 | 34.47758 | -12.73013 | 37221 ft | 403 kts | 221° |
| 2026-04-07 14:30 | 34.43149 | -12.76881 | 37226 ft | 404 kts | 220° |
| 2026-04-07 14:30 | 34.38529 | -12.80761 | 37221 ft | 404 kts | 221° |
| 2026-04-07 14:31 | 34.33907 | -12.84647 | 37223 ft | 405 kts | 221° |
| 2026-04-07 14:31 | 34.29267 | -12.88524 | 37227 ft | 405 kts | 221° |
| 2026-04-07 14:32 | 34.24628 | -12.92401 | 37227 ft | 405 kts | 221° |
| 2026-04-07 14:32 | 34.20787 | -12.95640 | 37220 ft | 405 kts | 221° |
| 2026-04-07 14:33 | 34.16170 | -12.99532 | 37225 ft | 405 kts | 221° |
| 2026-04-07 14:33 | 34.11557 | -13.03428 | 37223 ft | 405 kts | 221° |
| 2026-04-07 14:34 | 34.06940 | -13.07326 | 37219 ft | 405 kts | 221° |
| 2026-04-07 14:34 | 34.02310 | -13.11218 | 37224 ft | 406 kts | 222° |
| 2026-04-07 14:35 | 33.97659 | -13.15107 | 37227 ft | 407 kts | 222° |
| 2026-04-07 14:35 | 33.92998 | -13.18998 | 37228 ft | 407 kts | 222° |
| 2026-04-07 14:36 | 33.88343 | -13.22902 | 37222 ft | 408 kts | 222° |
| 2026-04-07 14:36 | 33.83677 | -13.26809 | 37220 ft | 409 kts | 222° |
| 2026-04-07 14:37 | 33.79036 | -13.30684 | 37217 ft | 409 kts | 223° |
| 2026-04-07 14:37 | 33.74356 | -13.34581 | 37218 ft | 409 kts | 223° |
| 2026-04-07 14:38 | 33.69662 | -13.38480 | 37220 ft | 411 kts | 222° |
| 2026-04-07 14:38 | 33.64961 | -13.42390 | 37226 ft | 412 kts | 222° |
| 2026-04-07 14:39 | 33.57883 | -13.48257 | 37233 ft | 413 kts | 223° |
| 2026-04-07 14:40 | 33.53161 | -13.52163 | 37239 ft | 412 kts | 223° |
| 2026-04-07 14:40 | 33.48437 | -13.56069 | 37242 ft | 413 kts | 223° |
| 2026-04-07 14:41 | 33.43696 | -13.59981 | 37239 ft | 414 kts | 222° |
| 2026-04-07 14:41 | 33.38959 | -13.63888 | 37246 ft | 413 kts | 223° |
| 2026-04-07 14:42 | 33.34223 | -13.67793 | 37250 ft | 413 kts | 222° |
| 2026-04-07 14:42 | 33.29480 | -13.71684 | 37245 ft | 414 kts | 222° |
| 2026-04-07 14:43 | 33.24733 | -13.75580 | 37250 ft | 414 kts | 223° |
| 2026-04-07 14:43 | 33.19980 | -13.79478 | 37257 ft | 415 kts | 223° |
| 2026-04-07 14:44 | 33.15256 | -13.83358 | 37263 ft | 415 kts | 222° |
| 2026-04-07 14:44 | 33.10491 | -13.87245 | 37263 ft | 415 kts | 222° |
| 2026-04-07 14:45 | 33.05714 | -13.91114 | 37262 ft | 415 kts | 222° |
| 2026-04-07 14:45 | 33.00926 | -13.94984 | 37266 ft | 416 kts | 222° |
| 2026-04-07 14:46 | 32.96141 | -13.98857 | 37269 ft | 416 kts | 222° |
| 2026-04-07 14:46 | 32.91348 | -14.02738 | 37270 ft | 417 kts | 223° |
| 2026-04-07 14:47 | 32.86540 | -14.06619 | 37258 ft | 418 kts | 223° |
| 2026-04-07 14:47 | 32.81716 | -14.10507 | 37257 ft | 420 kts | 223° |
| 2026-04-07 14:48 | 32.76873 | -14.14402 | 37258 ft | 421 kts | 223° |
| 2026-04-07 14:48 | 32.72016 | -14.18307 | 37263 ft | 422 kts | 223° |
| 2026-04-07 14:49 | 32.67151 | -14.22211 | 37267 ft | 422 kts | 223° |
| 2026-04-07 14:49 | 32.62278 | -14.26115 | 37264 ft | 423 kts | 223° |
| 2026-04-07 14:50 | 32.57399 | -14.30020 | 37262 ft | 423 kts | 223° |
| 2026-04-07 14:50 | 32.52516 | -14.33928 | 37263 ft | 424 kts | 223° |
| 2026-04-07 14:51 | 32.47631 | -14.37832 | 37266 ft | 424 kts | 223° |
| 2026-04-07 14:51 | 32.42740 | -14.41726 | 37266 ft | 424 kts | 223° |
| 2026-04-07 14:52 | 32.37852 | -14.45618 | 37264 ft | 423 kts | 223° |
| 2026-04-07 14:52 | 32.32960 | -14.49509 | 37262 ft | 424 kts | 223° |
| 2026-04-07 14:53 | 32.28060 | -14.53402 | 37262 ft | 424 kts | 223° |
| 2026-04-07 14:53 | 32.23192 | -14.57263 | 37262 ft | 425 kts | 223° |
| 2026-04-07 14:54 | 32.18282 | -14.61144 | 37264 ft | 425 kts | 223° |
| 2026-04-07 14:54 | 32.13375 | -14.65034 | 37264 ft | 425 kts | 223° |
| 2026-04-07 14:55 | 32.08467 | -14.68912 | 37264 ft | 425 kts | 223° |
| 2026-04-07 14:55 | 32.03554 | -14.72788 | 37265 ft | 425 kts | 223° |
| 2026-04-07 14:56 | 31.98647 | -14.76660 | 37267 ft | 424 kts | 223° |
| 2026-04-07 14:56 | 31.93735 | -14.80520 | 37259 ft | 425 kts | 223° |
| 2026-04-07 14:57 | 31.88810 | -14.84392 | 37256 ft | 426 kts | 223° |
| 2026-04-07 14:57 | 31.83879 | -14.88269 | 37257 ft | 426 kts | 223° |
| 2026-04-07 14:58 | 31.78969 | -14.92116 | 37257 ft | 427 kts | 222° |
| 2026-04-07 14:58 | 31.74020 | -14.95986 | 37258 ft | 427 kts | 222° |
| 2026-04-07 14:59 | 31.69073 | -14.99853 | 37258 ft | 427 kts | 223° |
| 2026-04-07 14:59 | 31.64126 | -15.03726 | 37259 ft | 428 kts | 222° |
| 2026-04-07 15:00 | 31.59167 | -15.07584 | 37259 ft | 428 kts | 222° |
| 2026-04-07 15:00 | 31.54203 | -15.11446 | 37261 ft | 428 kts | 222° |
| 2026-04-07 15:01 | 31.49242 | -15.15310 | 37261 ft | 428 kts | 222° |
| 2026-04-07 15:01 | 31.44273 | -15.19169 | 37261 ft | 429 kts | 222° |
| 2026-04-07 15:02 | 31.39301 | -15.23031 | 37267 ft | 429 kts | 222° |
| 2026-04-07 15:02 | 31.34322 | -15.26899 | 37274 ft | 429 kts | 222° |
| 2026-04-07 15:03 | 31.29314 | -15.30729 | 37278 ft | 432 kts | 220° |
| 2026-04-07 15:03 | 31.24070 | -15.34224 | 37280 ft | 436 kts | 217° |
| 2026-04-07 15:04 | 31.18689 | -15.37514 | 37278 ft | 436 kts | 216° |
| 2026-04-07 15:04 | 31.13330 | -15.40825 | 37275 ft | 436 kts | 216° |
| 2026-04-07 15:05 | 31.08047 | -15.44185 | 37273 ft | 435 kts | 217° |
| 2026-04-07 15:05 | 31.02745 | -15.47584 | 37272 ft | 435 kts | 216° |
| 2026-04-07 15:06 | 30.97426 | -15.50969 | 37272 ft | 436 kts | 216° |
| 2026-04-07 15:06 | 30.92103 | -15.54346 | 37272 ft | 436 kts | 216° |
| 2026-04-07 15:07 | 30.86772 | -15.57719 | 37271 ft | 436 kts | 216° |
| 2026-04-07 15:07 | 30.81439 | -15.61093 | 37271 ft | 437 kts | 216° |
| 2026-04-07 15:08 | 30.76097 | -15.64467 | 37273 ft | 437 kts | 216° |
| 2026-04-07 15:08 | 30.70758 | -15.67836 | 37275 ft | 437 kts | 216° |
| 2026-04-07 15:09 | 30.65410 | -15.71204 | 37275 ft | 437 kts | 215° |
| 2026-04-07 15:09 | 30.60057 | -15.74561 | 37273 ft | 437 kts | 215° |
| 2026-04-07 15:10 | 30.54714 | -15.77922 | 37270 ft | 437 kts | 215° |
| 2026-04-07 15:10 | 30.49362 | -15.81283 | 37268 ft | 438 kts | 215° |
| 2026-04-07 15:11 | 30.44000 | -15.84643 | 37271 ft | 438 kts | 214° |
| 2026-04-07 15:11 | 30.38640 | -15.88000 | 37270 ft | 438 kts | 214° |
| 2026-04-07 15:12 | 30.33269 | -15.91360 | 37271 ft | 439 kts | 214° |
| 2026-04-07 15:12 | 30.27930 | -15.94694 | 37270 ft | 439 kts | 214° |
| 2026-04-07 15:13 | 30.22550 | -15.98050 | 37268 ft | 439 kts | 214° |
| 2026-04-07 15:13 | 30.17165 | -16.01406 | 37269 ft | 440 kts | 214° |
| 2026-04-07 15:14 | 30.11782 | -16.04756 | 37272 ft | 440 kts | 214° |
| 2026-04-07 15:14 | 30.06421 | -16.08085 | 36994 ft | 432 kts | 215° |
| 2026-04-07 15:14 | 30.03785 | -16.09718 | 36744 ft | 429 kts | 216° |
| 2026-04-07 15:15 | 30.01162 | -16.11344 | 36495 ft | 428 kts | 216° |
| 2026-04-07 15:15 | 29.98540 | -16.12973 | 36242 ft | 429 kts | 216° |
| 2026-04-07 15:15 | 29.95896 | -16.14617 | 35998 ft | 434 kts | 216° |
| 2026-04-07 15:15 | 29.93225 | -16.16273 | 35745 ft | 438 kts | 215° |
| 2026-04-07 15:16 | 29.90533 | -16.17940 | 35493 ft | 440 kts | 215° |
| 2026-04-07 15:16 | 29.87833 | -16.19608 | 35245 ft | 440 kts | 215° |
| 2026-04-07 15:16 | 29.85170 | -16.21252 | 34997 ft | 439 kts | 215° |
| 2026-04-07 15:16 | 29.82477 | -16.22913 | 34745 ft | 439 kts | 215° |
| 2026-04-07 15:17 | 29.79791 | -16.24569 | 34495 ft | 438 kts | 215° |
| 2026-04-07 15:17 | 29.77111 | -16.26221 | 34247 ft | 436 kts | 215° |
| 2026-04-07 15:17 | 29.74400 | -16.27891 | 33994 ft | 435 kts | 215° |
| 2026-04-07 15:17 | 29.71767 | -16.29511 | 33744 ft | 434 kts | 215° |
| 2026-04-07 15:18 | 29.69106 | -16.31147 | 33493 ft | 433 kts | 215° |
| 2026-04-07 15:18 | 29.66450 | -16.32782 | 33240 ft | 432 kts | 215° |
| 2026-04-07 15:18 | 29.63806 | -16.34410 | 32979 ft | 430 kts | 215° |
| 2026-04-07 15:18 | 29.61175 | -16.36026 | 32743 ft | 428 kts | 215° |
| 2026-04-07 15:19 | 29.58655 | -16.37780 | 32492 ft | 420 kts | 223° |
| 2026-04-07 15:19 | 29.56396 | -16.39855 | 32243 ft | 414 kts | 226° |
| 2026-04-07 15:19 | 29.54180 | -16.41957 | 31988 ft | 411 kts | 226° |
| 2026-04-07 15:19 | 29.51992 | -16.44024 | 31584 ft | 405 kts | 226° |
| 2026-04-07 15:20 | 29.49829 | -16.46067 | 31126 ft | 400 kts | 226° |
| 2026-04-07 15:20 | 29.47690 | -16.48086 | 30678 ft | 396 kts | 226° |
| 2026-04-07 15:20 | 29.45574 | -16.50080 | 30233 ft | 392 kts | 226° |
| 2026-04-07 15:20 | 29.43481 | -16.52049 | 29807 ft | 387 kts | 226° |
| 2026-04-07 15:21 | 29.41406 | -16.53998 | 29383 ft | 383 kts | 226° |
| 2026-04-07 15:21 | 29.39359 | -16.55920 | 28978 ft | 379 kts | 226° |
| 2026-04-07 15:21 | 29.37330 | -16.57825 | 28568 ft | 375 kts | 226° |
| 2026-04-07 15:21 | 29.35326 | -16.59707 | 28187 ft | 370 kts | 226° |
| 2026-04-07 15:22 | 29.33348 | -16.61563 | 27808 ft | 365 kts | 226° |
| 2026-04-07 15:22 | 29.31399 | -16.63395 | 27429 ft | 360 kts | 226° |
| 2026-04-07 15:22 | 29.29471 | -16.65204 | 27068 ft | 355 kts | 226° |
| 2026-04-07 15:22 | 29.27590 | -16.66968 | 26714 ft | 354 kts | 226° |
| 2026-04-07 15:23 | 29.25670 | -16.68772 | 26349 ft | 352 kts | 226° |
| 2026-04-07 15:23 | 29.23806 | -16.70523 | 25984 ft | 350 kts | 225° |
| 2026-04-07 15:23 | 29.22536 | -16.71713 | 25739 ft | 349 kts | 225° |
| 2026-04-07 15:23 | 29.20053 | -16.74036 | 25248 ft | 347 kts | 225° |
| 2026-04-07 15:24 | 29.18194 | -16.75776 | 24868 ft | 345 kts | 225° |
| 2026-04-07 15:24 | 29.16342 | -16.77510 | 24491 ft | 343 kts | 225° |
| 2026-04-07 15:24 | 29.14500 | -16.79234 | 24100 ft | 341 kts | 225° |
| 2026-04-07 15:24 | 29.12667 | -16.80949 | 23719 ft | 340 kts | 225° |
| 2026-04-07 15:25 | 29.11431 | -16.82105 | 23449 ft | 339 kts | 225° |
| 2026-04-07 15:25 | 29.09612 | -16.83804 | 23050 ft | 337 kts | 225° |
| 2026-04-07 15:25 | 29.07832 | -16.85469 | 22664 ft | 334 kts | 225° |
| 2026-04-07 15:25 | 29.06038 | -16.87145 | 22263 ft | 332 kts | 225° |
| 2026-04-07 15:26 | 29.04253 | -16.88808 | 21868 ft | 330 kts | 225° |
| 2026-04-07 15:26 | 29.02475 | -16.90462 | 21473 ft | 328 kts | 225° |
| 2026-04-07 15:26 | 29.00709 | -16.92105 | 21085 ft | 326 kts | 225° |
| 2026-04-07 15:26 | 28.98953 | -16.93737 | 20688 ft | 324 kts | 224° |
| 2026-04-07 15:27 | 28.97211 | -16.95361 | 20305 ft | 322 kts | 225° |
| 2026-04-07 15:27 | 28.95480 | -16.96975 | 19900 ft | 320 kts | 224° |
| 2026-04-07 15:27 | 28.93758 | -16.98575 | 19523 ft | 318 kts | 224° |
| 2026-04-07 15:27 | 28.92042 | -17.00167 | 19127 ft | 317 kts | 224° |
| 2026-04-07 15:28 | 28.90340 | -17.01751 | 18743 ft | 315 kts | 224° |
| 2026-04-07 15:28 | 28.88649 | -17.03325 | 18361 ft | 313 kts | 224° |
| 2026-04-07 15:28 | 28.86965 | -17.04889 | 17977 ft | 311 kts | 224° |
| 2026-04-07 15:28 | 28.85295 | -17.06437 | 17602 ft | 309 kts | 224° |
| 2026-04-07 15:29 | 28.83719 | -17.07895 | 17246 ft | 307 kts | 224° |
| 2026-04-07 15:29 | 28.82068 | -17.09423 | 16862 ft | 305 kts | 224° |
| 2026-04-07 15:29 | 28.80427 | -17.10945 | 16493 ft | 303 kts | 224° |
| 2026-04-07 15:29 | 28.78800 | -17.12452 | 16121 ft | 301 kts | 224° |
| 2026-04-07 15:30 | 28.77177 | -17.13953 | 15753 ft | 299 kts | 224° |
| 2026-04-07 15:30 | 28.75567 | -17.15441 | 15386 ft | 297 kts | 224° |
| 2026-04-07 15:30 | 28.73969 | -17.16919 | 15020 ft | 295 kts | 224° |
| 2026-04-07 15:30 | 28.72380 | -17.18390 | 14658 ft | 293 kts | 224° |
| 2026-04-07 15:31 | 28.70800 | -17.19849 | 14298 ft | 291 kts | 224° |
| 2026-04-07 15:31 | 28.69254 | -17.21277 | 13947 ft | 289 kts | 224° |
| 2026-04-07 15:31 | 28.67698 | -17.22714 | 13593 ft | 287 kts | 223° |
| 2026-04-07 15:31 | 28.66147 | -17.24144 | 13227 ft | 286 kts | 223° |
| 2026-04-07 15:32 | 28.64607 | -17.25562 | 12872 ft | 284 kts | 223° |
| 2026-04-07 15:32 | 28.63077 | -17.26971 | 12529 ft | 282 kts | 223° |
| 2026-04-07 15:32 | 28.61556 | -17.28375 | 12175 ft | 280 kts | 223° |
| 2026-04-07 15:32 | 28.60049 | -17.29768 | 11830 ft | 279 kts | 223° |
| 2026-04-07 15:33 | 28.58551 | -17.31152 | 11488 ft | 276 kts | 223° |
| 2026-04-07 15:33 | 28.57070 | -17.32519 | 11143 ft | 273 kts | 223° |
| 2026-04-07 15:33 | 28.55606 | -17.33868 | 10807 ft | 270 kts | 222° |
| 2026-04-07 15:33 | 28.54153 | -17.35207 | 10471 ft | 268 kts | 222° |
| 2026-04-07 15:34 | 28.52711 | -17.36535 | 10133 ft | 266 kts | 222° |
| 2026-04-07 15:34 | 28.51278 | -17.37853 | 9805 ft | 264 kts | 221° |
| 2026-04-07 15:34 | 28.49859 | -17.39158 | 9478 ft | 262 kts | 221° |
| 2026-04-07 15:34 | 28.48443 | -17.40460 | 9150 ft | 261 kts | 221° |
| 2026-04-07 15:35 | 28.47032 | -17.41760 | 8820 ft | 260 kts | 221° |
| 2026-04-07 15:35 | 28.45631 | -17.43057 | 8500 ft | 260 kts | 223° |
| 2026-04-07 15:35 | 28.44428 | -17.44573 | 8174 ft | 258 kts | 237° |
| 2026-04-07 15:35 | 28.43609 | -17.46366 | 7832 ft | 256 kts | 251° |
| 2026-04-07 15:36 | 28.43217 | -17.48352 | 7326 ft | 260 kts | 267° |
| 2026-04-07 15:36 | 28.43190 | -17.50399 | 6960 ft | 259 kts | 271° |
| 2026-04-07 15:36 | 28.43174 | -17.52436 | 6629 ft | 257 kts | 270° |
| 2026-04-07 15:36 | 28.43146 | -17.54465 | 6298 ft | 256 kts | 270° |
| 2026-04-07 15:37 | 28.43117 | -17.56480 | 5963 ft | 254 kts | 271° |
| 2026-04-07 15:37 | 28.43088 | -17.58478 | 5622 ft | 252 kts | 271° |
| 2026-04-07 15:37 | 28.43060 | -17.60462 | 5294 ft | 250 kts | 271° |
| 2026-04-07 15:37 | 28.43033 | -17.62426 | 4948 ft | 248 kts | 272° |
| 2026-04-07 15:38 | 28.43004 | -17.64381 | 4602 ft | 247 kts | 272° |
| 2026-04-07 15:38 | 28.42979 | -17.66324 | 4254 ft | 245 kts | 272° |
| 2026-04-07 15:38 | 28.42946 | -17.68209 | 4164 ft | 232 kts | 273° |
| 2026-04-07 15:38 | 28.42915 | -17.69992 | 4075 ft | 222 kts | 274° |
| 2026-04-07 15:39 | 28.42889 | -17.71732 | 3967 ft | 219 kts | 274° |
| 2026-04-07 15:39 | 28.43161 | -17.73384 | 3871 ft | 210 kts | 301° |
| 2026-04-07 15:39 | 28.44075 | -17.74620 | 3774 ft | 202 kts | 327° |
| 2026-04-07 15:39 | 28.45337 | -17.75205 | 3452 ft | 195 kts | 353° |
| 2026-04-07 15:40 | 28.46671 | -17.75247 | 3159 ft | 189 kts | 359° |
| 2026-04-07 15:40 | 28.47925 | -17.75263 | 2888 ft | 171 kts | 358° |
| 2026-04-07 15:40 | 28.49059 | -17.75278 | 2635 ft | 156 kts | 353° |
| 2026-04-07 15:40 | 28.50099 | -17.75296 | 2417 ft | 147 kts | 351° |
| 2026-04-07 15:41 | 28.51111 | -17.75313 | 2225 ft | 145 kts | 350° |
| 2026-04-07 15:41 | 28.52138 | -17.75339 | 2030 ft | 151 kts | 351° |
| 2026-04-07 15:41 | 28.53204 | -17.75366 | 1826 ft | 156 kts | 355° |
| 2026-04-07 15:41 | 28.54293 | -17.75390 | 1613 ft | 157 kts | 360° |
| 2026-04-07 15:42 | 28.55386 | -17.75415 | 1414 ft | 155 kts | 360° |
| 2026-04-07 15:42 | 28.56396 | -17.75442 | 1259 ft | 137 kts | 1° |
| 2026-04-07 15:42 | 28.58193 | -17.75472 | 779 ft | 128 kts | 1° |
| 2026-04-07 15:43 | 28.59084 | -17.75494 | 626 ft | 126 kts | 359° |
| 2026-04-07 15:43 | 28.59957 | -17.75505 | 483 ft | 125 kts | 1° |
| 2026-04-07 15:43 | 28.60818 | -17.75515 | 354 ft | 123 kts | 355° |
| 2026-04-07 15:43 | 28.61673 | -17.75538 | 175 ft | 122 kts | 356° |
| 2026-04-07 15:44 | 28.62458 | -17.75554 | 112 ft | 88 kts | 358° |
| 2026-04-07 15:44 | 28.62872 | -17.75567 | 101 ft | 51 kts | 359° |
| 2026-04-07 15:44 | 28.63170 | -17.75571 | 91 ft | 29 kts | 359° |
| 2026-04-07 15:44 | 28.63334 | -17.75575 | 84 ft | 24 kts | 358° |
| 2026-04-07 15:45 | 28.63487 | -17.75578 | 81 ft | 17 kts | 358° |
| 2026-04-07 15:45 | 28.63578 | -17.75570 | 76 ft | 9 kts | 298° |
| 2026-04-07 15:45 | 28.63535 | -17.75584 | 78 ft | 9 kts | 167° |
| 2026-04-07 15:45 | 28.63437 | -17.75576 | 81 ft | 18 kts | 179° |
| 2026-04-07 15:46 | 28.63312 | -17.75574 | 87 ft | 19 kts | 179° |
| 2026-04-07 15:46 | 28.63166 | -17.75569 | 93 ft | 23 kts | 178° |
| 2026-04-07 15:46 | 28.62995 | -17.75566 | 95 ft | 25 kts | 179° |
| 2026-04-07 15:46 | 28.62826 | -17.75565 | 101 ft | 24 kts | 180° |
| 2026-04-07 15:47 | 28.62692 | -17.75554 | 106 ft | 12 kts | 165° |
| 2026-04-07 15:47 | 28.62637 | -17.75511 | 108 ft | 8 kts | 137° |
| 2026-04-07 15:47 | 28.62595 | -17.75468 | 108 ft | 6 kts | 142° |
| 2026-04-07 15:47 | 28.62561 | -17.75451 | 111 ft | 6 kts | 166° |
| 2026-04-07 15:48 | 28.62511 | -17.75448 | 111 ft | 9 kts | 178° |
| 2026-04-07 15:48 | 28.62445 | -17.75446 | 112 ft | 10 kts | 179° |
| 2026-04-07 15:48 | 28.62371 | -17.75445 | 114 ft | 12 kts | 179° |
| 2026-04-07 15:48 | 28.62293 | -17.75444 | 114 ft | 10 kts | 179° |
| 2026-04-07 15:49 | 28.62249 | -17.75412 | 114 ft | 7 kts | 104° |
| 2026-04-07 15:49 | 28.62247 | -17.75369 | 114 ft | 2 kts | 90° |
| 2026-04-07 15:49 | 28.62247 | -17.75365 | 113 ft | 0 kts | 90° |